sensor_id;sensor_type;location;lat;lon;timestamp;temperature;humidity
78649;DHT22;67962;47.310;9.642;2024-02-14T00:00:11;6.70;65.40
78649;DHT22;67962;47.310;9.642;2024-02-14T00:02:44;6.70;66.00
78649;DHT22;67962;47.310;9.642;2024-02-14T00:05:10;6.80;66.00
78649;DHT22;67962;47.310;9.642;2024-02-14T00:07:39;6.80;65.70
78649;DHT22;67962;47.310;9.642;2024-02-14T00:10:08;6.80;64.80
78649;DHT22;67962;47.310;9.642;2024-02-14T00:12:34;6.80;64.90
78649;DHT22;67962;47.310;9.642;2024-02-14T00:15:01;6.80;65.00
78649;DHT22;67962;47.310;9.642;2024-02-14T00:17:29;6.80;64.70
78649;DHT22;67962;47.310;9.642;2024-02-14T00:19:55;6.80;64.70
78649;DHT22;67962;47.310;9.642;2024-02-14T00:22:21;6.90;64.90
78649;DHT22;67962;47.310;9.642;2024-02-14T00:24:47;6.90;65.00
78649;DHT22;67962;47.310;9.642;2024-02-14T00:27:12;6.90;64.90
78649;DHT22;67962;47.310;9.642;2024-02-14T00:29:40;6.80;64.80
78649;DHT22;67962;47.310;9.642;2024-02-14T00:32:06;6.70;65.00
78649;DHT22;67962;47.310;9.642;2024-02-14T00:34:32;6.60;65.40
78649;DHT22;67962;47.310;9.642;2024-02-14T00:36:57;6.70;65.40
78649;DHT22;67962;47.310;9.642;2024-02-14T00:39:23;6.70;65.60
78649;DHT22;67962;47.310;9.642;2024-02-14T00:41:49;6.60;65.40
78649;DHT22;67962;47.310;9.642;2024-02-14T00:44:15;6.60;64.10
78649;DHT22;67962;47.310;9.642;2024-02-14T00:46:43;6.60;64.20
78649;DHT22;67962;47.310;9.642;2024-02-14T00:49:09;6.60;63.40
78649;DHT22;67962;47.310;9.642;2024-02-14T00:51:35;6.70;63.20
78649;DHT22;67962;47.310;9.642;2024-02-14T00:54:04;6.60;63.90
78649;DHT22;67962;47.310;9.642;2024-02-14T00:56:29;6.60;64.10
78649;DHT22;67962;47.310;9.642;2024-02-14T00:58:55;6.60;63.80
78649;DHT22;67962;47.310;9.642;2024-02-14T01:01:22;6.60;64.00
78649;DHT22;67962;47.310;9.642;2024-02-14T01:03:48;6.60;64.40
78649;DHT22;67962;47.310;9.642;2024-02-14T01:06:14;6.40;63.90
78649;DHT22;67962;47.310;9.642;2024-02-14T01:08:41;6.30;64.10
78649;DHT22;67962;47.310;9.642;2024-02-14T01:11:07;6.40;64.00
78649;DHT22;67962;47.310;9.642;2024-02-14T01:13:33;6.40;64.30
78649;DHT22;67962;47.310;9.642;2024-02-14T01:15:59;6.50;64.30
78649;DHT22;67962;47.310;9.642;2024-02-14T01:18:25;6.50;63.50
78649;DHT22;67962;47.310;9.642;2024-02-14T01:20:51;6.60;63.60
78649;DHT22;67962;47.310;9.642;2024-02-14T01:23:17;6.50;64.10
78649;DHT22;67962;47.310;9.642;2024-02-14T01:25:42;6.50;64.30
78649;DHT22;67962;47.310;9.642;2024-02-14T01:28:09;6.60;64.20
78649;DHT22;67962;47.310;9.642;2024-02-14T01:30:35;6.50;62.60
78649;DHT22;67962;47.310;9.642;2024-02-14T01:33:02;6.50;62.50
78649;DHT22;67962;47.310;9.642;2024-02-14T01:35:29;6.60;63.00
78649;DHT22;67962;47.310;9.642;2024-02-14T01:37:55;6.60;63.10
78649;DHT22;67962;47.310;9.642;2024-02-14T01:40:21;6.60;62.30
78649;DHT22;67962;47.310;9.642;2024-02-14T01:42:47;6.60;62.50
78649;DHT22;67962;47.310;9.642;2024-02-14T01:45:12;6.50;63.50
78649;DHT22;67962;47.310;9.642;2024-02-14T01:47:38;6.40;64.50
78649;DHT22;67962;47.310;9.642;2024-02-14T01:50:07;6.30;64.60
78649;DHT22;67962;47.310;9.642;2024-02-14T01:52:39;6.30;64.50
78649;DHT22;67962;47.310;9.642;2024-02-14T01:55:07;6.40;63.60
78649;DHT22;67962;47.310;9.642;2024-02-14T01:57:33;6.40;63.80
78649;DHT22;67962;47.310;9.642;2024-02-14T02:00:02;6.30;64.30
78649;DHT22;67962;47.310;9.642;2024-02-14T02:02:35;6.30;64.40
78649;DHT22;67962;47.310;9.642;2024-02-14T02:05:05;6.20;64.30
78649;DHT22;67962;47.310;9.642;2024-02-14T02:07:32;6.30;64.30
78649;DHT22;67962;47.310;9.642;2024-02-14T02:09:58;6.30;63.40
78649;DHT22;67962;47.310;9.642;2024-02-14T02:12:24;6.40;63.70
78649;DHT22;67962;47.310;9.642;2024-02-14T02:14:53;6.40;62.90
78649;DHT22;67962;47.310;9.642;2024-02-14T02:17:18;6.40;63.00
78649;DHT22;67962;47.310;9.642;2024-02-14T02:19:44;6.50;63.30
78649;DHT22;67962;47.310;9.642;2024-02-14T02:22:10;6.50;63.80
78649;DHT22;67962;47.310;9.642;2024-02-14T02:24:35;6.40;64.40
78649;DHT22;67962;47.310;9.642;2024-02-14T02:27:02;6.20;64.40
78649;DHT22;67962;47.310;9.642;2024-02-14T02:29:27;6.10;64.90
78649;DHT22;67962;47.310;9.642;2024-02-14T02:31:53;6.10;65.10
78649;DHT22;67962;47.310;9.642;2024-02-14T02:34:19;6.20;64.30
78649;DHT22;67962;47.310;9.642;2024-02-14T02:36:44;6.00;64.20
78649;DHT22;67962;47.310;9.642;2024-02-14T02:39:12;5.90;64.90
78649;DHT22;67962;47.310;9.642;2024-02-14T02:41:39;5.80;65.00
78649;DHT22;67962;47.310;9.642;2024-02-14T02:44:05;5.60;65.20
78649;DHT22;67962;47.310;9.642;2024-02-14T02:46:32;5.50;65.90
78649;DHT22;67962;47.310;9.642;2024-02-14T02:48:58;5.70;66.00
78649;DHT22;67962;47.310;9.642;2024-02-14T02:51:24;5.60;65.40
78649;DHT22;67962;47.310;9.642;2024-02-14T02:53:50;5.50;65.50
78649;DHT22;67962;47.310;9.642;2024-02-14T02:56:17;5.50;66.00
78649;DHT22;67962;47.310;9.642;2024-02-14T02:58:44;5.40;66.10
78649;DHT22;67962;47.310;9.642;2024-02-14T03:01:10;5.50;66.10
78649;DHT22;67962;47.310;9.642;2024-02-14T03:03:37;5.40;66.10
78649;DHT22;67962;47.310;9.642;2024-02-14T03:06:04;5.30;66.10
78649;DHT22;67962;47.310;9.642;2024-02-14T03:08:30;5.20;66.20
78649;DHT22;67962;47.310;9.642;2024-02-14T03:10:56;5.30;66.50
78649;DHT22;67962;47.310;9.642;2024-02-14T03:13:25;5.40;66.30
78649;DHT22;67962;47.310;9.642;2024-02-14T03:15:52;5.40;65.90
78649;DHT22;67962;47.310;9.642;2024-02-14T03:18:18;5.50;65.80
78649;DHT22;67962;47.310;9.642;2024-02-14T03:20:43;5.50;65.40
78649;DHT22;67962;47.310;9.642;2024-02-14T03:23:09;5.60;65.10
78649;DHT22;67962;47.310;9.642;2024-02-14T03:25:35;5.60;65.40
78649;DHT22;67962;47.310;9.642;2024-02-14T03:28:02;5.40;65.60
78649;DHT22;67962;47.310;9.642;2024-02-14T03:30:32;5.40;66.00
78649;DHT22;67962;47.310;9.642;2024-02-14T03:32:59;5.40;66.10
78649;DHT22;67962;47.310;9.642;2024-02-14T03:35:25;5.40;65.90
78649;DHT22;67962;47.310;9.642;2024-02-14T03:37:52;5.40;66.00
78649;DHT22;67962;47.310;9.642;2024-02-14T03:40:18;5.50;65.80
78649;DHT22;67962;47.310;9.642;2024-02-14T03:42:46;5.50;65.60
78649;DHT22;67962;47.310;9.642;2024-02-14T03:45:12;5.60;65.80
78649;DHT22;67962;47.310;9.642;2024-02-14T03:47:38;5.70;64.80
78649;DHT22;67962;47.310;9.642;2024-02-14T03:50:07;5.70;63.80
78649;DHT22;67962;47.310;9.642;2024-02-14T03:52:33;5.80;63.70
78649;DHT22;67962;47.310;9.642;2024-02-14T03:55:03;5.90;63.70
78649;DHT22;67962;47.310;9.642;2024-02-14T03:57:28;6.00;64.20
78649;DHT22;67962;47.310;9.642;2024-02-14T03:59:59;5.90;64.40
78649;DHT22;67962;47.310;9.642;2024-02-14T04:02:27;5.80;64.60
78649;DHT22;67962;47.310;9.642;2024-02-14T04:04:53;5.80;65.10
78649;DHT22;67962;47.310;9.642;2024-02-14T04:07:19;5.70;65.60
78649;DHT22;67962;47.310;9.642;2024-02-14T04:09:45;5.70;65.80
78649;DHT22;67962;47.310;9.642;2024-02-14T04:12:10;5.70;65.30
78649;DHT22;67962;47.310;9.642;2024-02-14T04:14:37;5.80;65.00
78649;DHT22;67962;47.310;9.642;2024-02-14T04:17:04;5.80;65.20
78649;DHT22;67962;47.310;9.642;2024-02-14T04:19:30;5.80;64.80
78649;DHT22;67962;47.310;9.642;2024-02-14T04:21:55;5.80;64.30
78649;DHT22;67962;47.310;9.642;2024-02-14T04:24:22;5.70;64.60
78649;DHT22;67962;47.310;9.642;2024-02-14T04:26:47;5.60;64.70
78649;DHT22;67962;47.310;9.642;2024-02-14T04:29:14;5.60;65.20
78649;DHT22;67962;47.310;9.642;2024-02-14T04:31:40;5.50;64.90
78649;DHT22;67962;47.310;9.642;2024-02-14T04:34:08;5.50;65.10
78649;DHT22;67962;47.310;9.642;2024-02-14T04:36:35;5.40;64.10
78649;DHT22;67962;47.310;9.642;2024-02-14T04:39:01;5.30;64.10
78649;DHT22;67962;47.310;9.642;2024-02-14T04:41:27;5.30;64.50
78649;DHT22;67962;47.310;9.642;2024-02-14T04:43:53;5.30;64.50
78649;DHT22;67962;47.310;9.642;2024-02-14T04:46:18;5.40;64.30
78649;DHT22;67962;47.310;9.642;2024-02-14T04:48:44;5.50;64.20
78649;DHT22;67962;47.310;9.642;2024-02-14T04:51:10;5.60;64.20
78649;DHT22;67962;47.310;9.642;2024-02-14T04:53:35;5.60;62.70
78649;DHT22;67962;47.310;9.642;2024-02-14T04:56:01;5.60;62.90
78649;DHT22;67962;47.310;9.642;2024-02-14T04:58:27;5.50;63.30
78649;DHT22;67962;47.310;9.642;2024-02-14T05:00:53;5.50;63.50
78649;DHT22;67962;47.310;9.642;2024-02-14T05:03:20;5.60;63.90
78649;DHT22;67962;47.310;9.642;2024-02-14T05:05:46;5.70;63.80
78649;DHT22;67962;47.310;9.642;2024-02-14T05:08:12;5.80;63.80
78649;DHT22;67962;47.310;9.642;2024-02-14T05:10:37;5.90;64.00
78649;DHT22;67962;47.310;9.642;2024-02-14T05:13:03;6.00;63.70
78649;DHT22;67962;47.310;9.642;2024-02-14T05:15:30;6.00;63.30
78649;DHT22;67962;47.310;9.642;2024-02-14T05:17:56;6.00;63.60
78649;DHT22;67962;47.310;9.642;2024-02-14T05:20:21;6.10;63.80
78649;DHT22;67962;47.310;9.642;2024-02-14T05:22:47;6.10;64.30
78649;DHT22;67962;47.310;9.642;2024-02-14T05:25:13;6.10;64.60
78649;DHT22;67962;47.310;9.642;2024-02-14T05:27:39;6.20;63.70
78649;DHT22;67962;47.310;9.642;2024-02-14T05:30:05;6.10;63.30
78649;DHT22;67962;47.310;9.642;2024-02-14T05:32:31;6.20;63.70
78649;DHT22;67962;47.310;9.642;2024-02-14T05:34:57;6.30;63.60
78649;DHT22;67962;47.310;9.642;2024-02-14T05:37:23;6.30;63.10
78649;DHT22;67962;47.310;9.642;2024-02-14T05:39:49;6.30;63.10
78649;DHT22;67962;47.310;9.642;2024-02-14T05:42:14;6.40;62.80
78649;DHT22;67962;47.310;9.642;2024-02-14T05:44:42;6.40;62.30
78649;DHT22;67962;47.310;9.642;2024-02-14T05:47:08;6.30;62.80
78649;DHT22;67962;47.310;9.642;2024-02-14T05:49:34;6.30;62.90
78649;DHT22;67962;47.310;9.642;2024-02-14T05:52:00;6.40;63.20
78649;DHT22;67962;47.310;9.642;2024-02-14T05:54:26;6.40;62.20
78649;DHT22;67962;47.310;9.642;2024-02-14T05:56:52;6.50;63.00
78649;DHT22;67962;47.310;9.642;2024-02-14T05:59:17;6.50;63.50
78649;DHT22;67962;47.310;9.642;2024-02-14T06:01:43;6.40;63.00
78649;DHT22;67962;47.310;9.642;2024-02-14T06:04:08;6.30;63.20
78649;DHT22;67962;47.310;9.642;2024-02-14T06:06:34;6.30;63.40
78649;DHT22;67962;47.310;9.642;2024-02-14T06:09:00;6.30;63.90
78649;DHT22;67962;47.310;9.642;2024-02-14T06:11:25;6.30;64.60
78649;DHT22;67962;47.310;9.642;2024-02-14T06:13:51;6.40;64.60
78649;DHT22;67962;47.310;9.642;2024-02-14T06:16:17;6.50;64.60
78649;DHT22;67962;47.310;9.642;2024-02-14T06:18:42;6.50;63.50
78649;DHT22;67962;47.310;9.642;2024-02-14T06:21:09;6.50;63.90
78649;DHT22;67962;47.310;9.642;2024-02-14T06:23:35;6.60;64.50
78649;DHT22;67962;47.310;9.642;2024-02-14T06:26:02;6.60;64.30
78649;DHT22;67962;47.310;9.642;2024-02-14T06:28:29;6.60;63.90
78649;DHT22;67962;47.310;9.642;2024-02-14T06:30:55;6.70;63.50
78649;DHT22;67962;47.310;9.642;2024-02-14T06:33:20;6.80;63.10
78649;DHT22;67962;47.310;9.642;2024-02-14T06:35:46;6.80;63.00
78649;DHT22;67962;47.310;9.642;2024-02-14T06:38:12;6.80;62.20
78649;DHT22;67962;47.310;9.642;2024-02-14T06:40:37;6.80;62.00
78649;DHT22;67962;47.310;9.642;2024-02-14T06:43:03;6.90;62.50
78649;DHT22;67962;47.310;9.642;2024-02-14T06:45:29;6.90;62.50
78649;DHT22;67962;47.310;9.642;2024-02-14T06:47:55;6.90;62.30
78649;DHT22;67962;47.310;9.642;2024-02-14T06:50:21;7.00;62.50
78649;DHT22;67962;47.310;9.642;2024-02-14T06:52:47;7.00;62.70
78649;DHT22;67962;47.310;9.642;2024-02-14T06:55:13;7.00;62.50
78649;DHT22;67962;47.310;9.642;2024-02-14T06:57:39;7.10;62.30
78649;DHT22;67962;47.310;9.642;2024-02-14T07:00:05;7.10;62.70
78649;DHT22;67962;47.310;9.642;2024-02-14T07:02:32;7.10;61.40
78649;DHT22;67962;47.310;9.642;2024-02-14T07:04:57;7.00;61.10
78649;DHT22;67962;47.310;9.642;2024-02-14T07:07:23;7.00;61.90
78649;DHT22;67962;47.310;9.642;2024-02-14T07:09:49;7.00;62.60
78649;DHT22;67962;47.310;9.642;2024-02-14T07:12:14;7.10;62.40
78649;DHT22;67962;47.310;9.642;2024-02-14T07:14:40;7.20;62.60
78649;DHT22;67962;47.310;9.642;2024-02-14T07:17:07;7.10;63.00
78649;DHT22;67962;47.310;9.642;2024-02-14T07:19:32;7.10;63.10
78649;DHT22;67962;47.310;9.642;2024-02-14T07:21:58;7.30;63.00
78649;DHT22;67962;47.310;9.642;2024-02-14T07:24:23;7.20;63.10
78649;DHT22;67962;47.310;9.642;2024-02-14T07:26:49;7.30;63.80
78649;DHT22;67962;47.310;9.642;2024-02-14T07:29:15;7.30;63.20
78649;DHT22;67962;47.310;9.642;2024-02-14T07:31:40;7.40;62.70
78649;DHT22;67962;47.310;9.642;2024-02-14T07:34:07;7.40;61.90
78649;DHT22;67962;47.310;9.642;2024-02-14T07:36:32;7.50;60.80
78649;DHT22;67962;47.310;9.642;2024-02-14T07:38:58;7.50;60.90
78649;DHT22;67962;47.310;9.642;2024-02-14T07:41:24;7.40;60.80
78649;DHT22;67962;47.310;9.642;2024-02-14T07:43:50;7.50;60.30
78649;DHT22;67962;47.310;9.642;2024-02-14T07:46:19;7.60;59.40
78649;DHT22;67962;47.310;9.642;2024-02-14T07:48:45;7.50;59.40
78649;DHT22;67962;47.310;9.642;2024-02-14T07:51:12;7.60;59.40
78649;DHT22;67962;47.310;9.642;2024-02-14T07:53:37;7.70;59.50
78649;DHT22;67962;47.310;9.642;2024-02-14T07:56:03;7.60;60.80
78649;DHT22;67962;47.310;9.642;2024-02-14T07:58:29;7.50;59.50
78649;DHT22;67962;47.310;9.642;2024-02-14T08:00:55;7.50;58.50
78649;DHT22;67962;47.310;9.642;2024-02-14T08:03:20;7.60;56.80
78649;DHT22;67962;47.310;9.642;2024-02-14T08:05:46;7.60;57.30
78649;DHT22;67962;47.310;9.642;2024-02-14T08:08:12;7.80;58.30
78649;DHT22;67962;47.310;9.642;2024-02-14T08:10:37;7.90;58.90
78649;DHT22;67962;47.310;9.642;2024-02-14T08:13:04;7.90;59.70
78649;DHT22;67962;47.310;9.642;2024-02-14T08:15:30;8.10;60.20
78649;DHT22;67962;47.310;9.642;2024-02-14T08:17:55;8.30;60.20
78649;DHT22;67962;47.310;9.642;2024-02-14T08:20:22;8.50;60.10
78649;DHT22;67962;47.310;9.642;2024-02-14T08:22:49;8.60;59.80
78649;DHT22;67962;47.310;9.642;2024-02-14T08:25:15;8.70;59.00
78649;DHT22;67962;47.310;9.642;2024-02-14T08:27:41;8.90;58.40
78649;DHT22;67962;47.310;9.642;2024-02-14T08:30:07;9.10;58.10
78649;DHT22;67962;47.310;9.642;2024-02-14T08:32:34;9.30;58.50
78649;DHT22;67962;47.310;9.642;2024-02-14T08:35:00;9.80;57.50
78649;DHT22;67962;47.310;9.642;2024-02-14T08:37:26;10.40;56.20
78649;DHT22;67962;47.310;9.642;2024-02-14T08:39:52;10.70;54.40
78649;DHT22;67962;47.310;9.642;2024-02-14T08:42:18;11.00;52.80
78649;DHT22;67962;47.310;9.642;2024-02-14T08:44:44;11.10;51.70
78649;DHT22;67962;47.310;9.642;2024-02-14T08:47:10;11.10;50.90
78649;DHT22;67962;47.310;9.642;2024-02-14T08:49:36;11.20;51.10
78649;DHT22;67962;47.310;9.642;2024-02-14T08:52:01;11.20;50.40
78649;DHT22;67962;47.310;9.642;2024-02-14T08:54:28;11.30;50.20
78649;DHT22;67962;47.310;9.642;2024-02-14T08:56:54;11.50;49.60
78649;DHT22;67962;47.310;9.642;2024-02-14T08:59:21;11.70;49.50
78649;DHT22;67962;47.310;9.642;2024-02-14T09:01:47;11.90;48.70
78649;DHT22;67962;47.310;9.642;2024-02-14T09:04:13;12.00;47.80
78649;DHT22;67962;47.310;9.642;2024-02-14T09:06:39;12.10;47.90
78649;DHT22;67962;47.310;9.642;2024-02-14T09:09:07;12.10;47.20
78649;DHT22;67962;47.310;9.642;2024-02-14T09:11:35;12.00;47.50
78649;DHT22;67962;47.310;9.642;2024-02-14T09:14:01;11.90;47.40
78649;DHT22;67962;47.310;9.642;2024-02-14T09:16:32;11.90;47.00
78649;DHT22;67962;47.310;9.642;2024-02-14T09:18:59;11.80;46.60
78649;DHT22;67962;47.310;9.642;2024-02-14T09:21:25;11.70;46.60
78649;DHT22;67962;47.310;9.642;2024-02-14T09:23:50;11.70;46.20
78649;DHT22;67962;47.310;9.642;2024-02-14T09:26:17;11.60;44.60
78649;DHT22;67962;47.310;9.642;2024-02-14T09:28:43;11.50;44.20
78649;DHT22;67962;47.310;9.642;2024-02-14T09:31:09;11.40;45.10
78649;DHT22;67962;47.310;9.642;2024-02-14T09:33:38;11.50;45.60
78649;DHT22;67962;47.310;9.642;2024-02-14T09:36:04;11.50;46.10
78649;DHT22;67962;47.310;9.642;2024-02-14T09:38:30;11.60;45.60
78649;DHT22;67962;47.310;9.642;2024-02-14T09:41:06;11.60;45.50
78649;DHT22;67962;47.310;9.642;2024-02-14T09:43:40;11.70;45.20
78649;DHT22;67962;47.310;9.642;2024-02-14T09:46:08;11.80;44.60
78649;DHT22;67962;47.310;9.642;2024-02-14T09:48:34;12.00;44.50
78649;DHT22;67962;47.310;9.642;2024-02-14T09:51:03;12.20;44.10
78649;DHT22;67962;47.310;9.642;2024-02-14T09:53:29;12.30;43.80
78649;DHT22;67962;47.310;9.642;2024-02-14T09:55:56;12.40;44.00
78649;DHT22;67962;47.310;9.642;2024-02-14T09:58:22;12.70;44.00
78649;DHT22;67962;47.310;9.642;2024-02-14T10:00:49;13.00;43.40
78649;DHT22;67962;47.310;9.642;2024-02-14T10:03:15;13.10;42.80
78649;DHT22;67962;47.310;9.642;2024-02-14T10:05:41;13.10;42.20
78649;DHT22;67962;47.310;9.642;2024-02-14T10:08:07;13.10;42.10
78649;DHT22;67962;47.310;9.642;2024-02-14T10:10:34;13.00;42.00
78649;DHT22;67962;47.310;9.642;2024-02-14T10:13:06;13.00;41.60
78649;DHT22;67962;47.310;9.642;2024-02-14T10:15:33;12.80;42.10
78649;DHT22;67962;47.310;9.642;2024-02-14T10:17:59;12.80;42.00
78649;DHT22;67962;47.310;9.642;2024-02-14T10:20:26;12.90;41.40
78649;DHT22;67962;47.310;9.642;2024-02-14T10:22:59;12.90;41.80
78649;DHT22;67962;47.310;9.642;2024-02-14T10:25:25;12.90;41.50
78649;DHT22;67962;47.310;9.642;2024-02-14T10:27:51;13.00;41.30
78649;DHT22;67962;47.310;9.642;2024-02-14T10:30:17;13.10;40.60
78649;DHT22;67962;47.310;9.642;2024-02-14T10:32:42;13.00;41.20
78649;DHT22;67962;47.310;9.642;2024-02-14T10:35:13;13.00;39.20
78649;DHT22;67962;47.310;9.642;2024-02-14T10:37:40;13.00;40.10
78649;DHT22;67962;47.310;9.642;2024-02-14T10:40:06;13.00;40.70
78649;DHT22;67962;47.310;9.642;2024-02-14T10:42:32;13.00;40.30
78649;DHT22;67962;47.310;9.642;2024-02-14T10:45:02;13.00;40.00
78649;DHT22;67962;47.310;9.642;2024-02-14T10:47:34;13.00;39.30
78649;DHT22;67962;47.310;9.642;2024-02-14T10:50:05;13.00;39.60
78649;DHT22;67962;47.310;9.642;2024-02-14T10:52:35;13.00;40.20
78649;DHT22;67962;47.310;9.642;2024-02-14T10:55:03;13.10;40.30
78649;DHT22;67962;47.310;9.642;2024-02-14T10:57:30;13.30;39.80
78649;DHT22;67962;47.310;9.642;2024-02-14T10:59:59;13.30;39.80
78649;DHT22;67962;47.310;9.642;2024-02-14T11:02:26;13.50;39.70
78649;DHT22;67962;47.310;9.642;2024-02-14T11:04:56;13.50;38.80
78649;DHT22;67962;47.310;9.642;2024-02-14T11:07:21;13.50;38.70
78649;DHT22;67962;47.310;9.642;2024-02-14T11:10:05;13.50;38.60
78649;DHT22;67962;47.310;9.642;2024-02-14T11:12:36;13.50;39.10
78649;DHT22;67962;47.310;9.642;2024-02-14T11:15:09;13.60;39.60
78649;DHT22;67962;47.310;9.642;2024-02-14T11:17:37;13.70;37.70
78649;DHT22;67962;47.310;9.642;2024-02-14T11:20:16;13.70;38.20
78649;DHT22;67962;47.310;9.642;2024-02-14T11:23:01;13.90;38.30
78649;DHT22;67962;47.310;9.642;2024-02-14T11:25:38;14.00;38.60
78649;DHT22;67962;47.310;9.642;2024-02-14T11:28:17;14.20;38.10
78649;DHT22;67962;47.310;9.642;2024-02-14T11:30:45;14.30;38.00
78649;DHT22;67962;47.310;9.642;2024-02-14T11:33:21;14.30;36.90
78649;DHT22;67962;47.310;9.642;2024-02-14T11:35:48;14.40;36.70
78649;DHT22;67962;47.310;9.642;2024-02-14T11:38:19;14.50;37.20
78649;DHT22;67962;47.310;9.642;2024-02-14T11:40:45;14.50;37.70
78649;DHT22;67962;47.310;9.642;2024-02-14T11:43:15;14.50;35.30
78649;DHT22;67962;47.310;9.642;2024-02-14T11:45:43;14.40;36.80
78649;DHT22;67962;47.310;9.642;2024-02-14T11:48:10;14.50;34.90
78649;DHT22;67962;47.310;9.642;2024-02-14T11:50:38;14.50;34.60
78649;DHT22;67962;47.310;9.642;2024-02-14T11:53:04;14.50;34.60
78649;DHT22;67962;47.310;9.642;2024-02-14T11:55:34;14.60;35.50
78649;DHT22;67962;47.310;9.642;2024-02-14T11:58:02;14.70;35.80
78649;DHT22;67962;47.310;9.642;2024-02-14T12:00:27;14.80;35.60
78649;DHT22;67962;47.310;9.642;2024-02-14T12:02:53;14.70;33.40
78649;DHT22;67962;47.310;9.642;2024-02-14T12:05:19;14.60;35.70
78649;DHT22;67962;47.310;9.642;2024-02-14T12:07:45;14.70;36.70
78649;DHT22;67962;47.310;9.642;2024-02-14T12:10:11;14.80;35.40
78649;DHT22;67962;47.310;9.642;2024-02-14T12:12:38;15.00;36.30
78649;DHT22;67962;47.310;9.642;2024-02-14T12:15:04;15.40;36.20
78649;DHT22;67962;47.310;9.642;2024-02-14T12:17:31;15.60;35.70
78649;DHT22;67962;47.310;9.642;2024-02-14T12:20:10;15.60;35.60
78649;DHT22;67962;47.310;9.642;2024-02-14T12:22:37;15.60;35.20
78649;DHT22;67962;47.310;9.642;2024-02-14T12:25:03;15.50;34.90
78649;DHT22;67962;47.310;9.642;2024-02-14T12:27:33;15.50;35.80
78649;DHT22;67962;47.310;9.642;2024-02-14T12:30:02;15.60;35.70
78649;DHT22;67962;47.310;9.642;2024-02-14T12:32:28;15.60;36.00
78649;DHT22;67962;47.310;9.642;2024-02-14T12:34:56;15.60;37.00
78649;DHT22;67962;47.310;9.642;2024-02-14T12:37:23;15.60;36.80
78649;DHT22;67962;47.310;9.642;2024-02-14T12:39:48;15.60;36.30
78649;DHT22;67962;47.310;9.642;2024-02-14T12:42:15;15.70;36.70
78649;DHT22;67962;47.310;9.642;2024-02-14T12:44:40;15.80;36.20
78649;DHT22;67962;47.310;9.642;2024-02-14T12:47:06;15.80;35.60
78649;DHT22;67962;47.310;9.642;2024-02-14T12:49:34;15.90;36.40
78649;DHT22;67962;47.310;9.642;2024-02-14T12:51:59;15.90;36.20
78649;DHT22;67962;47.310;9.642;2024-02-14T12:54:25;16.00;35.00
78649;DHT22;67962;47.310;9.642;2024-02-14T12:56:52;16.00;35.50
78649;DHT22;67962;47.310;9.642;2024-02-14T12:59:18;16.00;35.50
78649;DHT22;67962;47.310;9.642;2024-02-14T13:01:44;16.10;35.50
78649;DHT22;67962;47.310;9.642;2024-02-14T13:04:10;16.20;35.20
78649;DHT22;67962;47.310;9.642;2024-02-14T13:06:36;16.20;34.80
78649;DHT22;67962;47.310;9.642;2024-02-14T13:09:04;16.20;34.90
78649;DHT22;67962;47.310;9.642;2024-02-14T13:11:31;16.20;35.70
78649;DHT22;67962;47.310;9.642;2024-02-14T13:13:58;16.10;35.70
78649;DHT22;67962;47.310;9.642;2024-02-14T13:16:24;16.10;34.90
78649;DHT22;67962;47.310;9.642;2024-02-14T13:18:50;16.00;35.60
78649;DHT22;67962;47.310;9.642;2024-02-14T13:21:15;16.00;35.40
78649;DHT22;67962;47.310;9.642;2024-02-14T13:23:42;16.10;35.90
78649;DHT22;67962;47.310;9.642;2024-02-14T13:26:08;16.20;35.90
78649;DHT22;67962;47.310;9.642;2024-02-14T13:28:34;16.30;35.90
78649;DHT22;67962;47.310;9.642;2024-02-14T13:31:00;16.40;36.30
78649;DHT22;67962;47.310;9.642;2024-02-14T13:33:26;16.40;36.20
78649;DHT22;67962;47.310;9.642;2024-02-14T13:35:51;16.40;35.90
78649;DHT22;67962;47.310;9.642;2024-02-14T13:38:17;16.40;35.70
78649;DHT22;67962;47.310;9.642;2024-02-14T13:40:43;16.40;35.50
78649;DHT22;67962;47.310;9.642;2024-02-14T13:43:09;16.50;35.90
78649;DHT22;67962;47.310;9.642;2024-02-14T13:45:44;16.60;36.20
78649;DHT22;67962;47.310;9.642;2024-02-14T13:48:10;16.60;35.60
78649;DHT22;67962;47.310;9.642;2024-02-14T13:50:36;16.60;36.40
78649;DHT22;67962;47.310;9.642;2024-02-14T13:53:03;16.50;36.90
78649;DHT22;67962;47.310;9.642;2024-02-14T13:55:29;16.40;37.20
78649;DHT22;67962;47.310;9.642;2024-02-14T13:57:55;16.40;38.60
78649;DHT22;67962;47.310;9.642;2024-02-14T14:00:20;16.30;38.40
78649;DHT22;67962;47.310;9.642;2024-02-14T14:02:46;16.30;38.70
78649;DHT22;67962;47.310;9.642;2024-02-14T14:05:12;16.30;37.90
78649;DHT22;67962;47.310;9.642;2024-02-14T14:07:39;16.30;37.40
78649;DHT22;67962;47.310;9.642;2024-02-14T14:10:06;16.40;38.00
78649;DHT22;67962;47.310;9.642;2024-02-14T14:12:33;16.40;38.40
78649;DHT22;67962;47.310;9.642;2024-02-14T14:15:00;16.50;38.10
78649;DHT22;67962;47.310;9.642;2024-02-14T14:17:27;16.40;38.00
78649;DHT22;67962;47.310;9.642;2024-02-14T14:19:53;16.50;37.70
78649;DHT22;67962;47.310;9.642;2024-02-14T14:22:19;16.40;37.40
78649;DHT22;67962;47.310;9.642;2024-02-14T14:24:45;16.20;36.10
78649;DHT22;67962;47.310;9.642;2024-02-14T14:27:11;16.00;37.10
78649;DHT22;67962;47.310;9.642;2024-02-14T14:29:43;16.00;37.80
78649;DHT22;67962;47.310;9.642;2024-02-14T14:32:12;16.10;38.30
78649;DHT22;67962;47.310;9.642;2024-02-14T14:34:37;16.00;38.50
78649;DHT22;67962;47.310;9.642;2024-02-14T14:37:03;15.90;39.20
78649;DHT22;67962;47.310;9.642;2024-02-14T14:39:29;15.90;39.40
78649;DHT22;67962;47.310;9.642;2024-02-14T14:41:57;15.80;39.10
78649;DHT22;67962;47.310;9.642;2024-02-14T14:44:26;15.80;39.40
78649;DHT22;67962;47.310;9.642;2024-02-14T14:46:53;15.70;40.20
78649;DHT22;67962;47.310;9.642;2024-02-14T14:49:19;15.60;40.70
78649;DHT22;67962;47.310;9.642;2024-02-14T14:51:45;15.60;41.40
78649;DHT22;67962;47.310;9.642;2024-02-14T14:54:10;15.50;41.80
78649;DHT22;67962;47.310;9.642;2024-02-14T14:56:36;15.60;41.50
78649;DHT22;67962;47.310;9.642;2024-02-14T14:59:02;15.60;41.60
78649;DHT22;67962;47.310;9.642;2024-02-14T15:01:32;15.60;41.70
78649;DHT22;67962;47.310;9.642;2024-02-14T15:03:59;15.70;42.00
78649;DHT22;67962;47.310;9.642;2024-02-14T15:06:26;15.70;41.90
78649;DHT22;67962;47.310;9.642;2024-02-14T15:08:51;15.70;41.40
78649;DHT22;67962;47.310;9.642;2024-02-14T15:11:17;15.70;40.90
78649;DHT22;67962;47.310;9.642;2024-02-14T15:13:49;15.70;40.60
78649;DHT22;67962;47.310;9.642;2024-02-14T15:16:14;15.60;41.30
78649;DHT22;67962;47.310;9.642;2024-02-14T15:18:40;15.60;41.60
78649;DHT22;67962;47.310;9.642;2024-02-14T15:21:10;15.50;41.90
78649;DHT22;67962;47.310;9.642;2024-02-14T15:23:36;15.50;41.90
78649;DHT22;67962;47.310;9.642;2024-02-14T15:26:03;15.50;41.90
78649;DHT22;67962;47.310;9.642;2024-02-14T15:28:30;15.40;41.90
78649;DHT22;67962;47.310;9.642;2024-02-14T15:30:59;15.40;42.40
78649;DHT22;67962;47.310;9.642;2024-02-14T15:33:44;15.30;40.40
78649;DHT22;67962;47.310;9.642;2024-02-14T15:36:10;15.10;39.70